Ride Results

Oss Foley Memorial Riders Last Minute Special (17-11-2012)
Ride distance: 80.0 km

Outcomes - Oss Foley Memorial Riders Last Minute Special (17-11-2012)
Division No. of Entries Retired / DNE Completed Withdrawn Ineligible V/O Percentage Completed
HW 4 - 3 - - 1 75.00%
MW 17 - 14 1 - 2 82.35%
LW 12 - 10 - - 2 83.33%
JN 7 - 7 - - - 100.00%
Totals 40 - 34 1 - 5 85.00%
Results - Oss Foley Memorial Riders Last Minute Special (17-11-2012)
No. Rider Horse Place Time Leg Speeds Total
Km/Hr
H/R bpm
Heavyweight
199 Dennis Foley Jnr Jack 1 (BC) 4:35:00 18.7, 16.3 17.45 30, 53, 53 (Avg:53)
171 Craig Wall Undurra Braveheart 1 4:35:00 18.8, 16.2 17.45 36, 49, 56 (Avg:52)
94 Natalie Humphries Santanova 3 6:24:00 12.4, 12.4 12.50 40, 37, 52 (Avg:44)
166 Craig Wilson Stellar Express Lame L2 0:00:00 12.9, 10.2 - 40, 54, 60 (Avg:57)
Middleweight
101 Wendy Rand Shayelle Cameo 1 (BC) 4:14:00 19.3, 18.4 18.90 37, 43, 42 (Avg:42)
187 Kelli Parker Fly 2 4:35:00 19.3, 15.8 17.45 46, 46, 54 (Avg:50)
255 Cheryle Wall Blackwood Springs Rhapsody 3 5:14:00 16.5, 14.2 15.29 38, 46, 49 (Avg:47)
57 Tania Jago Rivergum Ripper 4 5:37:00 17.2, 12.1 14.24 39, 48, 49 (Avg:48)
102 Keryn Mahoney Tonki Dee Boo Pricilla 5 5:41:00 15.0, 13.1 14.08 38, 40, 41 (Avg:40)
50 Joanne Marshall Rivergum Renegade 6 5:43:00 15.2, 12.9 13.99 44, 47, 54 (Avg:50)
76 Karin Morris Rivergum Skye 7 5:43:01 15.2, 12.9 13.99 40, 44, 45 (Avg:44)
68 Janine Parr Janarr Prince Hector 8 6:33:00 12.6, 11.7 12.21 47, 47, 52 (Avg:49)
160 Stacey Dodd Kurrajong Blade 9 6:33:01 12.6, 11.7 12.21 36, 50, 50 (Avg:50)
268 Matthew Vernon Saffa 10 6:33:03 12.6, 11.7 12.21 44, 46, 60 (Avg:53)
219 Robert Crowe Kalody Park Patriack 11 6:45:00 12.0, 11.6 11.85 48, 52, 57 (Avg:54)
44 Kendal McIntee Tag-along Shamrock Park 12 7:01:00 11.8, 11.0 11.40 42, 42, 48 (Avg:45)
179 Debbie Grull Highland View Crush 13 7:01:01 11.8, 11.0 11.40 52, 50, 54 (Avg:52)
269 Korena Armstrong Equus Billy Mop 14 7:35:00 10.2, 10.8 10.55 36, 44, 52 (Avg:48)
230 Jodie Clarke Bluegrass Geronimo Lame L2 0:00:00 15.3, 13.0 - 42, 48, 58 (Avg:53)
207 Graham Bucknell Kairo Lame L1 0:00:00 18.7 - 51, 48 (Avg:48)
48 Alison Colbeck Duo Park Almighty Withdrawn L1 0:00:00 - - 50, 44 (Avg:44)
Lightweight
239 Cindy Hogg Undurra Geisha 1 5:00:00 18.8, 13.8 16.00 40, 50, 56 (Avg:53)
37 Jen Clingly Diamond Tail Desert Opal 2 5:00:55 17.7, 14.4 15.95 35, 48, 55 (Avg:51)
20 Jodi Smith Harmere Burkhan 2 (BC) 5:00:55 18.7, 13.8 15.95 42, 49, 52 (Avg:50)
182 Fran Jordan Tierview Saadat 4 5:06:00 17.0, 14.5 15.69 38, 44, 46 (Avg:45)
83 Angie Clark Cameo Bucephalus 5 5:14:00 16.5, 14.2 15.29 48, 52, 57 (Avg:54)
100 Trish Smith Beaucheval Akhiran 6 5:41:00 15.0, 13.1 14.08 40, 46, 49 (Avg:47)
90 Angela Hawks Rivergum Kasey 7 6:24:00 12.4, 12.4 12.50 50, 45, 46 (Avg:45)
19 Sonia Hodgetts Beer Street Targa 8 6:33:02 12.6, 11.7 12.21 41, 49, 54 (Avg:51)
248 Kristin Kay Malricia Ned 9 6:42:00 14.2, 10.2 11.94 43, 50, 46 (Avg:48)
228 Melissa Kelly Harmony 10 7:07:00 11.5, 10.9 11.24 41, 45, 49 (Avg:47)
217 Phoebe Harper Banks Windella Navarre Lame L2 0:00:00 10.2, 27.9 - 43, 50, 45 (Avg:47)
225 Jane Walsh Seabrook Lodge Stormbreaker Lame L2 0:00:00 17.2, 12.1 - 55, 44, 52 (Avg:48)
Junior
135 Breaana Smith Ebjarah Talismin 1 (BC) 5:06:00 18.0, 13.8 15.69 42, 49, 49 (Avg:49)
74 Felicity Perry Karabah Tully 2 6:11:00 12.6, 13.1 12.94 38, 45, 53 (Avg:49)
186 Amelia Napier The Joker 3 6:32:00 12.3, 12.1 12.24 36, 45, 49 (Avg:47)
209 Grace Huxtable Highland View Jess 4 6:45:04 12.0, 11.6 11.85 42, 43, 49 (Avg:46)
29 Danielle Taylor Rocky Point Red Jasper 5 6:45:42 12.0, 11.6 11.83 45, 45, 48 (Avg:46)
154 Sarah Parker King Park Chanel No 5 6 7:07:00 11.5, 10.9 11.24 36, 40, 44 (Avg:42)
47 Hannah Colbeck Harry Boy 7 7:16:00 10.2, 11.8 11.01 39, 43, 53 (Avg:48)